sensor_id;sensor_type;location;lat;lon;timestamp;P1;durP1;ratioP1;P2;durP2;ratioP2
28714;SDS011;15886;49.170;14.572;2023-11-19T00:01:57;24.33;;;11.70;;
28714;SDS011;15886;49.170;14.572;2023-11-19T00:04:28;31.60;;;11.80;;
28714;SDS011;15886;49.170;14.572;2023-11-19T00:06:57;32.65;;;14.25;;
28714;SDS011;15886;49.170;14.572;2023-11-19T00:09:30;25.13;;;12.82;;
28714;SDS011;15886;49.170;14.572;2023-11-19T00:11:59;27.35;;;13.63;;
28714;SDS011;15886;49.170;14.572;2023-11-19T00:14:30;37.50;;;12.90;;
28714;SDS011;15886;49.170;14.572;2023-11-19T00:16:58;31.13;;;13.52;;
28714;SDS011;15886;49.170;14.572;2023-11-19T00:19:29;20.67;;;10.13;;
28714;SDS011;15886;49.170;14.572;2023-11-19T00:21:57;19.35;;;9.20;;
28714;SDS011;15886;49.170;14.572;2023-11-19T00:24:30;23.23;;;9.40;;
28714;SDS011;15886;49.170;14.572;2023-11-19T00:26:58;20.42;;;11.30;;
28714;SDS011;15886;49.170;14.572;2023-11-19T00:29:27;29.05;;;12.68;;
28714;SDS011;15886;49.170;14.572;2023-11-19T00:31:55;29.02;;;11.75;;
28714;SDS011;15886;49.170;14.572;2023-11-19T00:34:25;24.75;;;10.95;;
28714;SDS011;15886;49.170;14.572;2023-11-19T00:36:53;18.42;;;9.90;;
28714;SDS011;15886;49.170;14.572;2023-11-19T00:39:26;20.15;;;9.45;;
28714;SDS011;15886;49.170;14.572;2023-11-19T00:41:54;24.27;;;12.90;;
28714;SDS011;15886;49.170;14.572;2023-11-19T00:44:25;22.98;;;11.68;;
28714;SDS011;15886;49.170;14.572;2023-11-19T00:46:53;23.60;;;13.25;;
28714;SDS011;15886;49.170;14.572;2023-11-19T00:49:24;19.52;;;10.40;;
28714;SDS011;15886;49.170;14.572;2023-11-19T00:51:53;24.42;;;11.50;;
28714;SDS011;15886;49.170;14.572;2023-11-19T00:54:21;22.02;;;12.32;;
28714;SDS011;15886;49.170;14.572;2023-11-19T00:56:52;20.05;;;10.25;;
28714;SDS011;15886;49.170;14.572;2023-11-19T00:59:22;21.17;;;9.15;;
28714;SDS011;15886;49.170;14.572;2023-11-19T01:01:50;14.52;;;8.25;;
28714;SDS011;15886;49.170;14.572;2023-11-19T01:04:18;19.63;;;9.73;;
28714;SDS011;15886;49.170;14.572;2023-11-19T01:06:46;16.63;;;9.00;;
28714;SDS011;15886;49.170;14.572;2023-11-19T01:09:14;17.73;;;9.68;;
28714;SDS011;15886;49.170;14.572;2023-11-19T01:11:43;15.80;;;8.82;;
28714;SDS011;15886;49.170;14.572;2023-11-19T01:14:11;16.08;;;8.70;;
28714;SDS011;15886;49.170;14.572;2023-11-19T01:16:40;14.27;;;7.93;;
28714;SDS011;15886;49.170;14.572;2023-11-19T01:19:12;17.92;;;8.45;;
28714;SDS011;15886;49.170;14.572;2023-11-19T01:21:41;19.38;;;9.85;;
28714;SDS011;15886;49.170;14.572;2023-11-19T01:24:12;15.18;;;9.10;;
28714;SDS011;15886;49.170;14.572;2023-11-19T01:26:41;22.10;;;9.18;;
28714;SDS011;15886;49.170;14.572;2023-11-19T01:29:14;16.58;;;9.23;;
28714;SDS011;15886;49.170;14.572;2023-11-19T01:31:43;17.98;;;9.30;;
28714;SDS011;15886;49.170;14.572;2023-11-19T01:34:13;16.90;;;8.82;;
28714;SDS011;15886;49.170;14.572;2023-11-19T01:36:41;18.00;;;9.20;;
28714;SDS011;15886;49.170;14.572;2023-11-19T01:39:09;18.75;;;10.23;;
28714;SDS011;15886;49.170;14.572;2023-11-19T01:41:38;19.17;;;9.80;;
28714;SDS011;15886;49.170;14.572;2023-11-19T01:46:44;25.95;;;10.15;;
28714;SDS011;15886;49.170;14.572;2023-11-19T01:49:15;23.80;;;10.70;;
28714;SDS011;15886;49.170;14.572;2023-11-19T01:51:46;31.25;;;12.35;;
28714;SDS011;15886;49.170;14.572;2023-11-19T01:54:15;48.17;;;18.50;;
28714;SDS011;15886;49.170;14.572;2023-11-19T01:56:43;36.88;;;17.80;;
28714;SDS011;15886;49.170;14.572;2023-11-19T01:59:11;40.35;;;16.60;;
28714;SDS011;15886;49.170;14.572;2023-11-19T02:01:43;39.17;;;15.18;;
28714;SDS011;15886;49.170;14.572;2023-11-19T02:04:11;26.70;;;12.68;;
28714;SDS011;15886;49.170;14.572;2023-11-19T02:06:40;27.98;;;12.18;;
28714;SDS011;15886;49.170;14.572;2023-11-19T02:09:09;26.33;;;12.50;;
28714;SDS011;15886;49.170;14.572;2023-11-19T02:11:39;28.27;;;12.48;;
28714;SDS011;15886;49.170;14.572;2023-11-19T02:14:09;25.58;;;13.73;;
28714;SDS011;15886;49.170;14.572;2023-11-19T02:16:38;37.25;;;15.25;;
28714;SDS011;15886;49.170;14.572;2023-11-19T02:19:08;26.23;;;11.27;;
28714;SDS011;15886;49.170;14.572;2023-11-19T02:21:38;22.85;;;9.70;;
28714;SDS011;15886;49.170;14.572;2023-11-19T02:24:09;21.23;;;10.40;;
28714;SDS011;15886;49.170;14.572;2023-11-19T02:26:39;19.35;;;10.35;;
28714;SDS011;15886;49.170;14.572;2023-11-19T02:29:11;14.93;;;7.72;;
28714;SDS011;15886;49.170;14.572;2023-11-19T02:31:40;15.13;;;9.25;;
28714;SDS011;15886;49.170;14.572;2023-11-19T02:36:42;21.60;;;9.32;;
28714;SDS011;15886;49.170;14.572;2023-11-19T02:39:10;17.80;;;8.90;;
28714;SDS011;15886;49.170;14.572;2023-11-19T02:41:42;20.40;;;8.98;;
28714;SDS011;15886;49.170;14.572;2023-11-19T02:44:10;16.23;;;7.93;;
28714;SDS011;15886;49.170;14.572;2023-11-19T02:46:39;21.70;;;10.32;;
28714;SDS011;15886;49.170;14.572;2023-11-19T02:49:12;17.52;;;9.05;;
28714;SDS011;15886;49.170;14.572;2023-11-19T02:51:40;18.63;;;10.30;;
28714;SDS011;15886;49.170;14.572;2023-11-19T02:54:09;28.88;;;13.13;;
28714;SDS011;15886;49.170;14.572;2023-11-19T02:56:37;17.58;;;10.15;;
28714;SDS011;15886;49.170;14.572;2023-11-19T02:59:07;17.35;;;9.93;;
28714;SDS011;15886;49.170;14.572;2023-11-19T03:04:17;17.38;;;9.48;;
28714;SDS011;15886;49.170;14.572;2023-11-19T03:06:47;19.33;;;8.98;;
28714;SDS011;15886;49.170;14.572;2023-11-19T03:09:15;20.75;;;9.98;;
28714;SDS011;15886;49.170;14.572;2023-11-19T03:11:44;19.20;;;9.80;;
28714;SDS011;15886;49.170;14.572;2023-11-19T03:14:12;20.55;;;9.40;;
28714;SDS011;15886;49.170;14.572;2023-11-19T03:16:41;14.88;;;8.15;;
28714;SDS011;15886;49.170;14.572;2023-11-19T03:19:09;16.08;;;8.50;;
28714;SDS011;15886;49.170;14.572;2023-11-19T03:21:37;16.85;;;8.50;;
28714;SDS011;15886;49.170;14.572;2023-11-19T03:24:05;19.60;;;9.70;;
28714;SDS011;15886;49.170;14.572;2023-11-19T03:26:35;24.45;;;11.30;;
28714;SDS011;15886;49.170;14.572;2023-11-19T03:29:04;27.92;;;13.30;;
28714;SDS011;15886;49.170;14.572;2023-11-19T03:31:32;20.17;;;8.45;;
28714;SDS011;15886;49.170;14.572;2023-11-19T03:34:02;22.98;;;9.82;;
28714;SDS011;15886;49.170;14.572;2023-11-19T03:36:33;25.02;;;12.30;;
28714;SDS011;15886;49.170;14.572;2023-11-19T03:39:04;30.55;;;14.90;;
28714;SDS011;15886;49.170;14.572;2023-11-19T03:41:32;24.42;;;11.98;;
28714;SDS011;15886;49.170;14.572;2023-11-19T03:44:03;29.27;;;12.32;;
28714;SDS011;15886;49.170;14.572;2023-11-19T03:46:32;21.80;;;10.27;;
28714;SDS011;15886;49.170;14.572;2023-11-19T03:49:02;21.90;;;9.10;;
28714;SDS011;15886;49.170;14.572;2023-11-19T03:51:33;17.80;;;8.30;;
28714;SDS011;15886;49.170;14.572;2023-11-19T03:54:04;11.48;;;6.93;;
28714;SDS011;15886;49.170;14.572;2023-11-19T03:56:33;11.90;;;7.07;;
28714;SDS011;15886;49.170;14.572;2023-11-19T03:59:01;14.88;;;7.55;;
28714;SDS011;15886;49.170;14.572;2023-11-19T04:01:30;14.43;;;7.40;;
28714;SDS011;15886;49.170;14.572;2023-11-19T04:03:58;10.27;;;7.03;;
28714;SDS011;15886;49.170;14.572;2023-11-19T04:06:26;11.40;;;7.45;;
28714;SDS011;15886;49.170;14.572;2023-11-19T04:08:57;16.17;;;8.10;;
28714;SDS011;15886;49.170;14.572;2023-11-19T04:11:25;12.07;;;7.78;;
28714;SDS011;15886;49.170;14.572;2023-11-19T04:16:26;11.90;;;6.28;;
28714;SDS011;15886;49.170;14.572;2023-11-19T04:18:55;16.67;;;6.68;;
28714;SDS011;15886;49.170;14.572;2023-11-19T04:21:27;10.73;;;6.47;;
28714;SDS011;15886;49.170;14.572;2023-11-19T04:23:55;16.95;;;8.68;;
28714;SDS011;15886;49.170;14.572;2023-11-19T04:26:23;13.27;;;6.68;;
28714;SDS011;15886;49.170;14.572;2023-11-19T04:28:51;13.40;;;7.75;;
28714;SDS011;15886;49.170;14.572;2023-11-19T04:31:19;12.57;;;6.93;;
28714;SDS011;15886;49.170;14.572;2023-11-19T04:33:50;14.40;;;6.93;;
28714;SDS011;15886;49.170;14.572;2023-11-19T04:36:19;15.02;;;6.80;;
28714;SDS011;15886;49.170;14.572;2023-11-19T04:38:51;11.00;;;6.72;;
28714;SDS011;15886;49.170;14.572;2023-11-19T04:41:20;13.23;;;6.03;;
28714;SDS011;15886;49.170;14.572;2023-11-19T04:43:50;13.02;;;6.75;;
28714;SDS011;15886;49.170;14.572;2023-11-19T04:46:18;11.30;;;6.47;;
28714;SDS011;15886;49.170;14.572;2023-11-19T04:48:46;10.88;;;6.55;;
28714;SDS011;15886;49.170;14.572;2023-11-19T04:51:14;11.40;;;6.15;;
28714;SDS011;15886;49.170;14.572;2023-11-19T04:53:44;11.32;;;7.28;;
28714;SDS011;15886;49.170;14.572;2023-11-19T04:56:14;16.20;;;8.27;;
28714;SDS011;15886;49.170;14.572;2023-11-19T04:58:43;11.43;;;7.00;;
28714;SDS011;15886;49.170;14.572;2023-11-19T05:01:13;14.05;;;7.50;;
28714;SDS011;15886;49.170;14.572;2023-11-19T05:03:44;12.55;;;6.78;;
28714;SDS011;15886;49.170;14.572;2023-11-19T05:06:12;13.63;;;6.63;;
28714;SDS011;15886;49.170;14.572;2023-11-19T05:08:42;9.65;;;5.93;;
28714;SDS011;15886;49.170;14.572;2023-11-19T05:11:10;11.13;;;5.85;;
28714;SDS011;15886;49.170;14.572;2023-11-19T05:13:46;10.00;;;6.25;;
28714;SDS011;15886;49.170;14.572;2023-11-19T05:16:14;15.85;;;6.70;;
28714;SDS011;15886;49.170;14.572;2023-11-19T05:18:42;13.98;;;7.28;;
28714;SDS011;15886;49.170;14.572;2023-11-19T05:21:11;13.90;;;6.82;;
28714;SDS011;15886;49.170;14.572;2023-11-19T05:23:40;14.32;;;6.55;;
28714;SDS011;15886;49.170;14.572;2023-11-19T05:26:09;12.25;;;5.82;;
28714;SDS011;15886;49.170;14.572;2023-11-19T05:28:38;9.45;;;5.22;;
28714;SDS011;15886;49.170;14.572;2023-11-19T05:31:06;11.10;;;6.55;;
28714;SDS011;15886;49.170;14.572;2023-11-19T05:33:35;9.40;;;5.75;;
28714;SDS011;15886;49.170;14.572;2023-11-19T05:36:04;7.75;;;4.90;;
28714;SDS011;15886;49.170;14.572;2023-11-19T05:38:32;12.07;;;6.40;;
28714;SDS011;15886;49.170;14.572;2023-11-19T05:41:00;53.83;;;18.02;;
28714;SDS011;15886;49.170;14.572;2023-11-19T05:43:31;11.85;;;5.45;;
28714;SDS011;15886;49.170;14.572;2023-11-19T05:46:03;10.95;;;4.95;;
28714;SDS011;15886;49.170;14.572;2023-11-19T05:48:44;18.50;;;9.93;;
28714;SDS011;15886;49.170;14.572;2023-11-19T05:51:13;18.48;;;8.82;;
28714;SDS011;15886;49.170;14.572;2023-11-19T05:53:42;16.38;;;5.30;;
28714;SDS011;15886;49.170;14.572;2023-11-19T05:56:10;11.95;;;6.25;;
28714;SDS011;15886;49.170;14.572;2023-11-19T05:58:43;19.85;;;9.63;;
28714;SDS011;15886;49.170;14.572;2023-11-19T06:01:12;14.45;;;6.93;;
28714;SDS011;15886;49.170;14.572;2023-11-19T06:03:40;8.40;;;4.68;;
28714;SDS011;15886;49.170;14.572;2023-11-19T06:06:10;16.90;;;5.97;;
28714;SDS011;15886;49.170;14.572;2023-11-19T06:08:39;9.38;;;5.53;;
28714;SDS011;15886;49.170;14.572;2023-11-19T06:11:07;12.40;;;8.55;;
28714;SDS011;15886;49.170;14.572;2023-11-19T06:13:41;10.35;;;4.72;;
28714;SDS011;15886;49.170;14.572;2023-11-19T06:16:10;6.68;;;4.40;;
28714;SDS011;15886;49.170;14.572;2023-11-19T06:18:39;6.65;;;4.28;;
28714;SDS011;15886;49.170;14.572;2023-11-19T06:21:08;9.15;;;4.63;;
28714;SDS011;15886;49.170;14.572;2023-11-19T06:23:36;7.97;;;4.00;;
28714;SDS011;15886;49.170;14.572;2023-11-19T06:26:04;6.18;;;3.78;;
28714;SDS011;15886;49.170;14.572;2023-11-19T06:28:33;6.20;;;3.92;;
28714;SDS011;15886;49.170;14.572;2023-11-19T06:31:03;6.78;;;3.67;;
28714;SDS011;15886;49.170;14.572;2023-11-19T06:33:31;11.70;;;3.90;;
28714;SDS011;15886;49.170;14.572;2023-11-19T06:36:03;6.10;;;3.75;;
28714;SDS011;15886;49.170;14.572;2023-11-19T06:38:31;7.03;;;4.25;;
28714;SDS011;15886;49.170;14.572;2023-11-19T06:41:00;7.88;;;4.15;;
28714;SDS011;15886;49.170;14.572;2023-11-19T06:43:28;8.60;;;4.90;;
28714;SDS011;15886;49.170;14.572;2023-11-19T06:46:14;10.13;;;5.45;;
28714;SDS011;15886;49.170;14.572;2023-11-19T06:51:15;7.50;;;5.70;;
28714;SDS011;15886;49.170;14.572;2023-11-19T06:53:46;10.27;;;6.88;;
28714;SDS011;15886;49.170;14.572;2023-11-19T06:56:18;24.20;;;14.20;;
28714;SDS011;15886;49.170;14.572;2023-11-19T06:58:46;43.60;;;24.98;;
28714;SDS011;15886;49.170;14.572;2023-11-19T07:01:16;24.85;;;14.80;;
28714;SDS011;15886;49.170;14.572;2023-11-19T07:03:45;24.05;;;14.38;;
28714;SDS011;15886;49.170;14.572;2023-11-19T07:06:14;21.20;;;13.77;;
28714;SDS011;15886;49.170;14.572;2023-11-19T07:08:42;48.97;;;29.58;;
28714;SDS011;15886;49.170;14.572;2023-11-19T07:11:16;67.70;;;34.92;;
28714;SDS011;15886;49.170;14.572;2023-11-19T07:13:44;69.65;;;32.05;;
28714;SDS011;15886;49.170;14.572;2023-11-19T07:16:14;51.70;;;26.30;;
28714;SDS011;15886;49.170;14.572;2023-11-19T07:18:42;56.45;;;25.08;;
28714;SDS011;15886;49.170;14.572;2023-11-19T07:21:11;46.85;;;14.25;;
28714;SDS011;15886;49.170;14.572;2023-11-19T07:23:45;11.38;;;4.93;;
28714;SDS011;15886;49.170;14.572;2023-11-19T07:26:14;4.07;;;2.20;;
28714;SDS011;15886;49.170;14.572;2023-11-19T07:28:44;6.80;;;2.80;;
28714;SDS011;15886;49.170;14.572;2023-11-19T07:31:12;5.18;;;2.53;;
28714;SDS011;15886;49.170;14.572;2023-11-19T07:33:41;4.00;;;2.38;;
28714;SDS011;15886;49.170;14.572;2023-11-19T07:36:12;4.35;;;2.25;;
28714;SDS011;15886;49.170;14.572;2023-11-19T07:38:40;3.30;;;2.55;;
28714;SDS011;15886;49.170;14.572;2023-11-19T07:41:08;3.50;;;2.50;;
28714;SDS011;15886;49.170;14.572;2023-11-19T07:43:39;7.03;;;2.97;;
28714;SDS011;15886;49.170;14.572;2023-11-19T07:46:12;3.10;;;2.10;;
28714;SDS011;15886;49.170;14.572;2023-11-19T07:48:41;20.75;;;10.05;;
28714;SDS011;15886;49.170;14.572;2023-11-19T07:51:10;5.45;;;2.95;;
28714;SDS011;15886;49.170;14.572;2023-11-19T07:53:39;6.28;;;2.65;;
28714;SDS011;15886;49.170;14.572;2023-11-19T07:56:08;9.20;;;4.20;;
28714;SDS011;15886;49.170;14.572;2023-11-19T07:58:37;3.70;;;2.17;;
28714;SDS011;15886;49.170;14.572;2023-11-19T08:01:05;5.65;;;3.08;;
28714;SDS011;15886;49.170;14.572;2023-11-19T08:03:33;3.83;;;2.53;;
28714;SDS011;15886;49.170;14.572;2023-11-19T08:06:03;13.10;;;6.60;;
28714;SDS011;15886;49.170;14.572;2023-11-19T08:08:31;12.82;;;7.55;;
28714;SDS011;15886;49.170;14.572;2023-11-19T08:11:00;10.40;;;7.03;;
28714;SDS011;15886;49.170;14.572;2023-11-19T08:13:28;13.25;;;7.05;;
28714;SDS011;15886;49.170;14.572;2023-11-19T08:15:57;10.65;;;6.10;;
28714;SDS011;15886;49.170;14.572;2023-11-19T08:18:25;16.02;;;9.35;;
28714;SDS011;15886;49.170;14.572;2023-11-19T08:20:53;21.08;;;9.77;;
28714;SDS011;15886;49.170;14.572;2023-11-19T08:23:23;19.85;;;9.27;;
28714;SDS011;15886;49.170;14.572;2023-11-19T08:25:52;22.92;;;11.52;;
28714;SDS011;15886;49.170;14.572;2023-11-19T08:28:21;26.60;;;10.90;;
28714;SDS011;15886;49.170;14.572;2023-11-19T08:30:49;24.40;;;13.95;;
28714;SDS011;15886;49.170;14.572;2023-11-19T08:33:17;22.15;;;11.93;;
28714;SDS011;15886;49.170;14.572;2023-11-19T08:35:45;48.80;;;19.88;;
28714;SDS011;15886;49.170;14.572;2023-11-19T08:38:14;42.42;;;23.25;;
28714;SDS011;15886;49.170;14.572;2023-11-19T08:40:57;77.47;;;35.90;;
28714;SDS011;15886;49.170;14.572;2023-11-19T08:43:27;59.05;;;25.63;;
28714;SDS011;15886;49.170;14.572;2023-11-19T08:45:55;51.10;;;23.73;;
28714;SDS011;15886;49.170;14.572;2023-11-19T08:48:23;21.67;;;10.60;;
28714;SDS011;15886;49.170;14.572;2023-11-19T08:50:53;21.00;;;10.45;;
28714;SDS011;15886;49.170;14.572;2023-11-19T08:53:21;8.73;;;2.70;;
28714;SDS011;15886;49.170;14.572;2023-11-19T08:55:49;4.25;;;2.20;;
28714;SDS011;15886;49.170;14.572;2023-11-19T08:58:17;0.70;;;0.57;;
28714;SDS011;15886;49.170;14.572;2023-11-19T09:00:46;1.15;;;0.30;;
28714;SDS011;15886;49.170;14.572;2023-11-19T09:03:14;0.40;;;0.40;;
28714;SDS011;15886;49.170;14.572;2023-11-19T09:05:42;0.68;;;0.65;;
28714;SDS011;15886;49.170;14.572;2023-11-19T09:08:10;0.40;;;0.40;;
28714;SDS011;15886;49.170;14.572;2023-11-19T09:10:39;0.80;;;0.60;;
28714;SDS011;15886;49.170;14.572;2023-11-19T09:13:07;0.85;;;0.75;;
28714;SDS011;15886;49.170;14.572;2023-11-19T09:15:35;1.17;;;0.70;;
28714;SDS011;15886;49.170;14.572;2023-11-19T09:18:03;0.73;;;0.50;;
28714;SDS011;15886;49.170;14.572;2023-11-19T09:20:31;0.40;;;0.40;;
28714;SDS011;15886;49.170;14.572;2023-11-19T09:23:05;0.55;;;0.50;;
28714;SDS011;15886;49.170;14.572;2023-11-19T09:25:35;3.20;;;1.08;;
28714;SDS011;15886;49.170;14.572;2023-11-19T09:28:06;6.25;;;2.75;;
28714;SDS011;15886;49.170;14.572;2023-11-19T09:30:36;15.38;;;5.88;;
28714;SDS011;15886;49.170;14.572;2023-11-19T09:33:04;21.70;;;8.48;;
28714;SDS011;15886;49.170;14.572;2023-11-19T09:35:32;7.80;;;4.25;;
28714;SDS011;15886;49.170;14.572;2023-11-19T09:38:01;11.43;;;7.53;;
28714;SDS011;15886;49.170;14.572;2023-11-19T09:40:30;1.85;;;1.13;;
28714;SDS011;15886;49.170;14.572;2023-11-19T09:42:58;2.72;;;1.67;;
28714;SDS011;15886;49.170;14.572;2023-11-19T09:45:27;0.77;;;0.50;;
28714;SDS011;15886;49.170;14.572;2023-11-19T09:47:55;0.50;;;0.40;;
28714;SDS011;15886;49.170;14.572;2023-11-19T09:50:25;2.05;;;0.60;;
28714;SDS011;15886;49.170;14.572;2023-11-19T09:52:53;7.70;;;3.88;;
28714;SDS011;15886;49.170;14.572;2023-11-19T09:55:22;15.43;;;4.95;;
28714;SDS011;15886;49.170;14.572;2023-11-19T09:57:50;42.65;;;13.75;;
28714;SDS011;15886;49.170;14.572;2023-11-19T10:00:19;35.25;;;14.00;;
28714;SDS011;15886;49.170;14.572;2023-11-19T10:02:48;29.40;;;13.63;;
28714;SDS011;15886;49.170;14.572;2023-11-19T10:05:17;14.40;;;8.73;;
28714;SDS011;15886;49.170;14.572;2023-11-19T10:07:47;18.33;;;9.07;;
28714;SDS011;15886;49.170;14.572;2023-11-19T10:10:16;17.95;;;10.40;;
28714;SDS011;15886;49.170;14.572;2023-11-19T10:12:46;10.75;;;3.50;;
28714;SDS011;15886;49.170;14.572;2023-11-19T10:15:20;40.53;;;15.80;;
28714;SDS011;15886;49.170;14.572;2023-11-19T10:17:50;61.05;;;26.35;;
28714;SDS011;15886;49.170;14.572;2023-11-19T10:20:21;61.85;;;25.75;;
28714;SDS011;15886;49.170;14.572;2023-11-19T10:22:53;43.17;;;21.02;;
28714;SDS011;15886;49.170;14.572;2023-11-19T10:25:26;60.05;;;28.08;;
28714;SDS011;15886;49.170;14.572;2023-11-19T10:27:55;90.30;;;38.67;;
28714;SDS011;15886;49.170;14.572;2023-11-19T10:30:25;37.13;;;16.48;;
28714;SDS011;15886;49.170;14.572;2023-11-19T10:35:32;0.98;;;0.50;;
28714;SDS011;15886;49.170;14.572;2023-11-19T10:38:01;62.95;;;30.70;;
28714;SDS011;15886;49.170;14.572;2023-11-19T10:40:38;54.60;;;23.05;;
28714;SDS011;15886;49.170;14.572;2023-11-19T10:43:10;34.95;;;13.75;;
28714;SDS011;15886;49.170;14.572;2023-11-19T10:45:38;9.13;;;4.20;;
28714;SDS011;15886;49.170;14.572;2023-11-19T10:48:07;9.30;;;4.95;;
28714;SDS011;15886;49.170;14.572;2023-11-19T10:50:36;5.45;;;3.58;;
28714;SDS011;15886;49.170;14.572;2023-11-19T10:53:05;8.45;;;3.15;;
28714;SDS011;15886;49.170;14.572;2023-11-19T10:55:34;4.20;;;2.38;;
28714;SDS011;15886;49.170;14.572;2023-11-19T10:58:02;4.05;;;2.40;;
28714;SDS011;15886;49.170;14.572;2023-11-19T11:00:39;5.68;;;3.15;;
28714;SDS011;15886;49.170;14.572;2023-11-19T11:03:16;8.80;;;4.00;;
28714;SDS011;15886;49.170;14.572;2023-11-19T11:05:49;8.98;;;4.40;;
28714;SDS011;15886;49.170;14.572;2023-11-19T11:08:18;12.25;;;5.00;;
28714;SDS011;15886;49.170;14.572;2023-11-19T11:10:53;13.95;;;6.32;;
28714;SDS011;15886;49.170;14.572;2023-11-19T11:13:22;12.25;;;5.95;;
28714;SDS011;15886;49.170;14.572;2023-11-19T11:15:51;14.38;;;6.25;;
28714;SDS011;15886;49.170;14.572;2023-11-19T11:18:20;15.43;;;6.00;;
28714;SDS011;15886;49.170;14.572;2023-11-19T11:20:52;11.75;;;4.85;;
28714;SDS011;15886;49.170;14.572;2023-11-19T11:36:31;1.70;;;0.82;;
28714;SDS011;15886;49.170;14.572;2023-11-19T11:39:03;0.77;;;0.60;;
28714;SDS011;15886;49.170;14.572;2023-11-19T11:41:35;1.80;;;1.17;;
28714;SDS011;15886;49.170;14.572;2023-11-19T11:44:03;1.27;;;0.80;;
28714;SDS011;15886;49.170;14.572;2023-11-19T11:49:06;1.60;;;0.88;;
28714;SDS011;15886;49.170;14.572;2023-11-19T11:54:25;3.30;;;1.33;;
28714;SDS011;15886;49.170;14.572;2023-11-19T11:57:28;2.78;;;1.33;;
28714;SDS011;15886;49.170;14.572;2023-11-19T11:59:50;9.00;;;2.60;;
28714;SDS011;15886;49.170;14.572;2023-11-19T12:02:19;3.42;;;1.42;;
28714;SDS011;15886;49.170;14.572;2023-11-19T12:04:49;7.85;;;2.15;;
28714;SDS011;15886;49.170;14.572;2023-11-19T12:07:21;4.72;;;1.90;;
28714;SDS011;15886;49.170;14.572;2023-11-19T12:10:05;2.53;;;1.35;;
28714;SDS011;15886;49.170;14.572;2023-11-19T12:12:34;3.00;;;0.88;;
28714;SDS011;15886;49.170;14.572;2023-11-19T12:15:06;4.60;;;1.60;;
28714;SDS011;15886;49.170;14.572;2023-11-19T12:17:38;1.23;;;1.02;;
28714;SDS011;15886;49.170;14.572;2023-11-19T12:20:11;1.75;;;0.85;;
28714;SDS011;15886;49.170;14.572;2023-11-19T12:22:43;1.98;;;0.98;;
28714;SDS011;15886;49.170;14.572;2023-11-19T12:25:12;1.80;;;1.02;;
28714;SDS011;15886;49.170;14.572;2023-11-19T12:27:44;3.45;;;2.08;;
28714;SDS011;15886;49.170;14.572;2023-11-19T12:30:22;13.70;;;5.07;;
28714;SDS011;15886;49.170;14.572;2023-11-19T12:32:53;4.15;;;2.03;;
28714;SDS011;15886;49.170;14.572;2023-11-19T12:35:24;1.63;;;1.17;;
28714;SDS011;15886;49.170;14.572;2023-11-19T12:37:53;1.38;;;0.85;;
28714;SDS011;15886;49.170;14.572;2023-11-19T12:40:21;1.60;;;1.17;;
28714;SDS011;15886;49.170;14.572;2023-11-19T12:42:51;7.85;;;3.67;;
28714;SDS011;15886;49.170;14.572;2023-11-19T12:45:20;2.28;;;1.27;;
28714;SDS011;15886;49.170;14.572;2023-11-19T12:48:03;1.02;;;0.80;;
28714;SDS011;15886;49.170;14.572;2023-11-19T12:53:20;7.07;;;3.13;;
28714;SDS011;15886;49.170;14.572;2023-11-19T12:55:49;3.03;;;1.25;;
28714;SDS011;15886;49.170;14.572;2023-11-19T12:58:33;6.07;;;3.17;;
28714;SDS011;15886;49.170;14.572;2023-11-19T13:01:02;2.42;;;1.15;;
28714;SDS011;15886;49.170;14.572;2023-11-19T13:03:32;2.35;;;1.50;;
28714;SDS011;15886;49.170;14.572;2023-11-19T13:06:09;21.25;;;8.70;;
28714;SDS011;15886;49.170;14.572;2023-11-19T13:08:42;6.97;;;3.15;;
28714;SDS011;15886;49.170;14.572;2023-11-19T13:11:31;5.28;;;1.40;;
28714;SDS011;15886;49.170;14.572;2023-11-19T13:14:01;42.03;;;17.40;;
28714;SDS011;15886;49.170;14.572;2023-11-19T13:16:37;19.85;;;7.03;;
28714;SDS011;15886;49.170;14.572;2023-11-19T13:19:06;3.00;;;1.95;;
28714;SDS011;15886;49.170;14.572;2023-11-19T13:21:35;3.20;;;1.70;;
28714;SDS011;15886;49.170;14.572;2023-11-19T13:24:05;3.45;;;1.67;;
28714;SDS011;15886;49.170;14.572;2023-11-19T13:26:33;3.60;;;1.30;;
28714;SDS011;15886;49.170;14.572;2023-11-19T13:29:02;3.53;;;2.30;;
28714;SDS011;15886;49.170;14.572;2023-11-19T13:31:30;3.33;;;1.30;;
28714;SDS011;15886;49.170;14.572;2023-11-19T13:33:58;8.05;;;4.00;;
28714;SDS011;15886;49.170;14.572;2023-11-19T13:36:26;5.68;;;2.30;;
28714;SDS011;15886;49.170;14.572;2023-11-19T13:38:55;1.90;;;1.30;;
28714;SDS011;15886;49.170;14.572;2023-11-19T13:41:26;3.05;;;1.90;;
28714;SDS011;15886;49.170;14.572;2023-11-19T13:43:54;1.23;;;1.10;;
28714;SDS011;15886;49.170;14.572;2023-11-19T13:46:23;1.85;;;1.05;;
28714;SDS011;15886;49.170;14.572;2023-11-19T13:48:52;2.33;;;0.82;;
28714;SDS011;15886;49.170;14.572;2023-11-19T13:51:20;0.95;;;0.80;;
28714;SDS011;15886;49.170;14.572;2023-11-19T13:53:48;2.20;;;1.38;;
28714;SDS011;15886;49.170;14.572;2023-11-19T13:56:19;2.30;;;1.45;;
28714;SDS011;15886;49.170;14.572;2023-11-19T13:58:47;3.35;;;1.58;;
28714;SDS011;15886;49.170;14.572;2023-11-19T14:01:15;3.45;;;1.85;;
28714;SDS011;15886;49.170;14.572;2023-11-19T14:03:44;6.78;;;2.90;;
28714;SDS011;15886;49.170;14.572;2023-11-19T14:06:12;4.40;;;2.03;;
28714;SDS011;15886;49.170;14.572;2023-11-19T14:08:41;4.50;;;1.70;;
28714;SDS011;15886;49.170;14.572;2023-11-19T14:11:09;4.05;;;1.95;;
28714;SDS011;15886;49.170;14.572;2023-11-19T14:13:37;3.40;;;1.50;;
28714;SDS011;15886;49.170;14.572;2023-11-19T14:16:06;3.08;;;1.45;;
28714;SDS011;15886;49.170;14.572;2023-11-19T14:18:36;2.42;;;1.80;;
28714;SDS011;15886;49.170;14.572;2023-11-19T14:21:04;6.68;;;1.98;;
28714;SDS011;15886;49.170;14.572;2023-11-19T14:23:33;6.15;;;1.70;;
28714;SDS011;15886;49.170;14.572;2023-11-19T14:26:04;6.05;;;1.60;;
28714;SDS011;15886;49.170;14.572;2023-11-19T14:28:33;4.65;;;2.40;;
28714;SDS011;15886;49.170;14.572;2023-11-19T14:31:20;8.88;;;1.80;;
28714;SDS011;15886;49.170;14.572;2023-11-19T14:33:49;3.85;;;1.38;;
28714;SDS011;15886;49.170;14.572;2023-11-19T14:36:17;2.90;;;1.60;;
28714;SDS011;15886;49.170;14.572;2023-11-19T14:38:46;2.92;;;1.33;;
28714;SDS011;15886;49.170;14.572;2023-11-19T14:41:15;3.58;;;1.60;;
28714;SDS011;15886;49.170;14.572;2023-11-19T14:43:43;4.25;;;1.90;;
28714;SDS011;15886;49.170;14.572;2023-11-19T14:46:12;5.53;;;2.20;;
28714;SDS011;15886;49.170;14.572;2023-11-19T14:48:42;3.30;;;2.33;;
28714;SDS011;15886;49.170;14.572;2023-11-19T14:51:10;4.05;;;2.30;;
28714;SDS011;15886;49.170;14.572;2023-11-19T14:53:39;3.85;;;2.28;;
28714;SDS011;15886;49.170;14.572;2023-11-19T14:56:10;2.80;;;2.28;;
28714;SDS011;15886;49.170;14.572;2023-11-19T14:58:40;6.05;;;3.70;;
28714;SDS011;15886;49.170;14.572;2023-11-19T15:01:11;9.70;;;5.10;;
28714;SDS011;15886;49.170;14.572;2023-11-19T15:03:39;4.75;;;3.28;;
28714;SDS011;15886;49.170;14.572;2023-11-19T15:06:12;3.70;;;2.47;;
28714;SDS011;15886;49.170;14.572;2023-11-19T15:08:41;3.65;;;2.55;;
28714;SDS011;15886;49.170;14.572;2023-11-19T15:11:09;3.17;;;2.28;;
28714;SDS011;15886;49.170;14.572;2023-11-19T15:13:38;9.48;;;3.58;;
28714;SDS011;15886;49.170;14.572;2023-11-19T15:16:09;8.15;;;4.47;;